Historique des stations

Station météo de Etrechet

Altitude de la station : 156 m







Données météorologiques pour le 20/01/2022
Date
Heure
Températures Humidité Point de rosée Vitesse
du vent
Direction Rafales Windchill Pression Pluviométrie
Cumul
Date
Heure
Températures Humidité Point de rosée Vitesse
du vent
Direction Rafales Windchill Pression Pluviométrie
Cumul
20/01/2022 16:006.8 °C79 %3.3 °C11 km/hNE21 km/h4.4 1032 hPa0.8 mm
20/01/2022 15:596.8 °C79 %3.3 °C13 km/hNNE29 km/h3.9 1032 hPa0.8 mm
20/01/2022 15:457.2 °C77 %3.3 °C21 km/hNE27 km/h3.3 1032 hPa0.8 mm
20/01/2022 15:447.2 °C77 %3.3 °C18 km/hNE29 km/h3.9 1032 hPa0.8 mm
20/01/2022 15:307.3 °C77 %3.3 °C18 km/hNNE29 km/h3.9 1032 hPa0.8 mm
20/01/2022 15:156.9 °C80 %3.9 °C23 km/hNNE29 km/h3.3 1032 hPa0.8 mm
20/01/2022 15:006.8 °C82 %3.9 °C10 km/hNE29 km/h4.4 1032 hPa0.8 mm
20/01/2022 14:456.6 °C81 %3.3 °C16 km/hNE29 km/h3.3 1032 hPa0.8 mm
20/01/2022 14:306.9 °C84 %4.4 °C16 km/hNNE29 km/h3.3 1032 hPa0.8 mm
20/01/2022 14:146.7 °C82 %3.9 °C21 km/hNE29 km/h2.8 1032 hPa0.8 mm
20/01/2022 13:597.1 °C82 %4.4 °C24 km/hNE29 km/h2.8 1032 hPa0.8 mm
20/01/2022 13:446.9 °C84 %4.4 °C14 km/hNE27 km/h3.3 1032 hPa0.8 mm
20/01/2022 13:296.7 °C86 %4.4 °C24 km/hNNE27 km/h2.2 1032 hPa0.8 mm
20/01/2022 13:146.5 °C88 %4.4 °C14 km/hNNE27 km/h3.3 1032 hPa0.8 mm
20/01/2022 12:596.1 °C87 %3.9 °C18 km/hENE27 km/h2.8 1032 hPa0.8 mm
20/01/2022 12:446.0 °C90 %4.4 °C13 km/hNNE27 km/h3.3 1032 hPa0.8 mm
20/01/2022 12:295.9 °C92 %5.0 °C16 km/hNNE27 km/h2.8 1032 hPa0.8 mm
20/01/2022 12:145.6 °C95 %5.0 °C19 km/hNNE26 km/h1.7 1032 hPa0.8 mm
20/01/2022 11:595.3 °C96 %5.0 °C5 km/hENE26 km/h5.0 1033 hPa0.8 mm
20/01/2022 11:444.8 °C96 %4.4 °C10 km/hN26 km/h2.8 1032 hPa0.8 mm
20/01/2022 11:294.2 °C96 %3.9 °C10 km/hNE26 km/h2.2 1032 hPa0.8 mm
20/01/2022 11:144.2 °C97 %3.9 °C16 km/hNE26 km/h1.1 1032 hPa0.8 mm
20/01/2022 10:594.6 °C97 %3.9 °C18 km/hNNE26 km/h1.1 1032 hPa0.8 mm
20/01/2022 10:444.7 °C97 %4.4 °C18 km/hNNE23 km/h1.1 1032 hPa0.8 mm
20/01/2022 10:294.5 °C97 %3.9 °C11 km/hNNE19 km/h1.7 1032 hPa0.8 mm
20/01/2022 10:144.2 °C97 %3.9 °C5 km/hN19 km/h3.3 1032 hPa0.8 mm
20/01/2022 09:594.1 °C97 %3.9 °C5 km/hN19 km/h2.8 1032 hPa0.8 mm
20/01/2022 09:444.0 °C97 %3.9 °C10 km/hNO19 km/h1.1 1032 hPa0.8 mm
20/01/2022 09:293.9 °C97 %3.3 °C6 km/hNO19 km/h2.2 1032 hPa0.8 mm
20/01/2022 09:143.9 °C97 %3.3 °C6 km/hONO19 km/h2.2 1031 hPa0.8 mm
20/01/2022 08:593.8 °C97 %3.3 °C3 km/hONO19 km/h2.8 1031 hPa0.8 mm
20/01/2022 08:443.7 °C96 %3.3 °C3 km/hO19 km/h2.8 1031 hPa0.8 mm
20/01/2022 08:303.7 °C96 %3.3 °C6 km/hONO11 km/h2.2 1031 hPa0.8 mm
20/01/2022 08:293.6 °C96 %3.3 °C3 km/hO19 km/h2.8 1031 hPa0.8 mm
20/01/2022 08:153.6 °C96 %3.3 °C5 km/hO10 km/h2.8 1031 hPa0.8 mm
20/01/2022 08:143.6 °C96 %3.3 °C2 km/hO19 km/h3.3 1031 hPa0.8 mm
20/01/2022 08:003.6 °C96 %2.8 °C10 km/hONO11 km/h0.6 1030 hPa0.8 mm
20/01/2022 07:593.6 °C96 %2.8 °C5 km/hO19 km/h2.2 1030 hPa0.8 mm
20/01/2022 07:453.5 °C96 %2.8 °C6 km/hO10 km/h1.7 1030 hPa0.8 mm
20/01/2022 07:443.6 °C96 %2.8 °C-O19 km/h3.3 1030 hPa0.8 mm
20/01/2022 07:303.5 °C96 %2.8 °C5 km/hO11 km/h2.2 1030 hPa0.8 mm
20/01/2022 07:293.5 °C96 %2.8 °C6 km/hO19 km/h1.7 1030 hPa0.8 mm
20/01/2022 07:153.5 °C96 %2.8 °C11 km/hO11 km/h0.6 1030 hPa0.8 mm
20/01/2022 07:143.5 °C96 %2.8 °C3 km/hOSO19 km/h2.2 1030 hPa0.8 mm
20/01/2022 07:003.4 °C96 %2.8 °C2 km/hO19 km/h2.8 1030 hPa0.8 mm
20/01/2022 06:453.4 °C96 %2.8 °C6 km/hOSO19 km/h1.7 1030 hPa0.8 mm
20/01/2022 06:303.4 °C96 %2.8 °C6 km/hO19 km/h1.7 1030 hPa0.8 mm
20/01/2022 06:153.4 °C96 %2.8 °C11 km/hO19 km/h0.6 1030 hPa0.6 mm
20/01/2022 05:593.4 °C96 %2.8 °C10 km/hO19 km/h0.6 1030 hPa0.4 mm
20/01/2022 05:443.4 °C96 %2.8 °C6 km/hO19 km/h1.7 1030 hPa0.4 mm
20/01/2022 05:293.4 °C96 %2.8 °C10 km/hO19 km/h0.6 1030 hPa0.4 mm
20/01/2022 05:143.4 °C95 %2.8 °C11 km/hSO19 km/h0.6 1030 hPa0.4 mm
20/01/2022 04:593.4 °C95 %2.8 °C6 km/hSO19 km/h1.7 1030 hPa0.4 mm
20/01/2022 04:443.4 °C95 %2.8 °C6 km/hSO19 km/h1.7 1030 hPa0.4 mm
20/01/2022 04:293.3 °C95 %2.8 °C6 km/hSO19 km/h1.7 1030 hPa0.4 mm
20/01/2022 04:143.3 °C95 %2.8 °C10 km/hOSO19 km/h0.6 1030 hPa0.4 mm
20/01/2022 03:593.3 °C95 %2.8 °C11 km/hSO19 km/h0.6 1030 hPa0.2 mm
20/01/2022 03:443.4 °C95 %2.8 °C13 km/hSSO19 km/h0.6 1030 hPa0.2 mm
20/01/2022 03:293.4 °C95 %2.8 °C3 km/hSO19 km/h2.2 1030 hPa0.2 mm
20/01/2022 03:143.4 °C95 %2.8 °C10 km/hSO19 km/h0.6 1030 hPa-
20/01/2022 02:593.4 °C95 %2.8 °C10 km/hSO19 km/h0.6 1030 hPa-
20/01/2022 02:443.4 °C95 %2.8 °C10 km/hSO19 km/h0.6 1030 hPa-
20/01/2022 02:293.4 °C94 %2.8 °C5 km/hSO19 km/h2.2 1030 hPa-
20/01/2022 02:143.4 °C94 %2.8 °C8 km/hSO19 km/h1.1 1030 hPa-
20/01/2022 01:593.4 °C94 %2.8 °C8 km/hSO19 km/h1.1 1030 hPa-
20/01/2022 01:443.4 °C94 %2.8 °C11 km/hSO19 km/h0.6 1030 hPa-
20/01/2022 01:293.4 °C94 %2.8 °C8 km/hSO19 km/h1.1 1030 hPa-
20/01/2022 01:143.4 °C94 %2.8 °C8 km/hSO19 km/h1.1 1030 hPa-
20/01/2022 00:593.4 °C94 %2.8 °C6 km/hSO19 km/h1.7 1030 hPa-
20/01/2022 00:443.5 °C94 %2.8 °C13 km/hOSO19 km/h0.6 1031 hPa-
20/01/2022 00:293.6 °C95 %2.8 °C8 km/hSO18 km/h1.1 1031 hPa-
20/01/2022 00:143.6 °C95 %2.8 °C8 km/hSO18 km/h1.1 1031 hPa-


Minima :

Température : 3.3 °C
Humidité : 77 %
Point de rosée : 2.8 °C
Vent moyen : 2 km/h
Windchill : 0.6
Pression atm. : 1030 hPa
Maxima :

Température : 7.3 °C
Humidité : 97 %
Point de rosée : 5.0 °C
Vent moyen : 24 km/h
Windchill : 5.0
Pression atm. : 1033 hPa
Rafales max : 29 km/h
Cumul de pluie sur 24H : 0.8 mm

Etrechet est une commune du département Indre (36).
La station météorologique du réseau de l'association la plus proche de Etrechet est celle de Saint-Maur



Icône Facebook Association Météo Centre Icône Twitter Association Météo Centre Icône Chaîne Youtube Association Météo Centre Icône contact Association Météo Centre Icône Insta Association Météo Centre